TimeCST,TemperatureF,Dew PointF,Humidity,Sea Level PressureIn,VisibilityMPH,Wind Direction,Wind SpeedMPH,Gust SpeedMPH,PrecipitationIn,Events,Conditions,WindDirDegrees,DateUTC
12:15 AM,17.6,10.9,75,30.38,10.0,Calm,Calm,-,N/A,,Clear,0,2012-11-27 06:15:00
12:35 AM,17.6,10.8,75,30.38,10.0,Calm,Calm,-,N/A,,Clear,0,2012-11-27 06:35:00
12:55 AM,16.2,10.2,77,30.38,10.0,Calm,Calm,-,N/A,,Clear,0,2012-11-27 06:55:00
1:15 AM,15.1,10.4,82,30.38,10.0,Calm,Calm,-,N/A,,Clear,0,2012-11-27 07:15:00
1:35 AM,14.9,10.2,82,30.38,10.0,Calm,Calm,-,N/A,,Clear,0,2012-11-27 07:35:00
1:55 AM,15.6,9.9,78,30.38,10.0,NW,3.5,-,N/A,,Clear,320,2012-11-27 07:55:00
2:15 AM,14.9,10.0,81,30.38,10.0,Calm,Calm,-,N/A,,Clear,0,2012-11-27 08:15:00
4:15 AM,13.8,9.5,83,30.38,10.0,NW,3.5,-,N/A,,Clear,320,2012-11-27 10:15:00
4:35 AM,13.6,8.6,80,30.38,10.0,NNW,4.6,-,N/A,,Clear,330,2012-11-27 10:35:00
4:55 AM,14.0,8.6,79,30.38,10.0,NNW,3.5,-,N/A,,Clear,330,2012-11-27 10:55:00
5:15 AM,12.9,8.4,82,30.37,10.0,Calm,Calm,-,N/A,,Clear,0,2012-11-27 11:15:00
5:35 AM,12.9,8.6,83,30.36,10.0,Calm,Calm,-,N/A,,Clear,0,2012-11-27 11:35:00
6:15 AM,12.9,8.6,83,30.37,10.0,Calm,Calm,-,N/A,,Clear,0,2012-11-27 12:15:00
6:35 AM,12.9,8.2,82,30.38,10.0,Calm,Calm,-,N/A,,Clear,0,2012-11-27 12:35:00
6:55 AM,12.7,8.4,83,30.38,10.0,Calm,Calm,-,N/A,,Clear,0,2012-11-27 12:55:00
7:15 AM,10.4,7.5,88,30.38,10.0,Calm,Calm,-,N/A,,Clear,0,2012-11-27 13:15:00
7:35 AM,12.0,9.1,88,30.40,10.0,Calm,Calm,-,N/A,,Clear,0,2012-11-27 13:35:00
7:55 AM,14.2,10.9,87,30.41,10.0,Calm,Calm,-,N/A,,Clear,0,2012-11-27 13:55:00
8:15 AM,16.2,12.2,84,30.41,10.0,SW,3.5,-,N/A,,Clear,220,2012-11-27 14:15:00
8:35 AM,18.1,12.6,79,30.42,10.0,Calm,Calm,-,N/A,,Clear,0,2012-11-27 14:35:00
8:55 AM,19.9,13.5,76,30.42,10.0,SW,3.5,-,N/A,,Clear,230,2012-11-27 14:55:00
9:15 AM,21.7,13.6,71,30.41,10.0,SSW,4.6,-,N/A,,Clear,210,2012-11-27 15:15:00
9:35 AM,23.5,12.4,62,30.42,10.0,SW,6.9,-,N/A,,Clear,230,2012-11-27 15:35:00
9:55 AM,24.8,13.3,62,30.42,10.0,SSW,6.9,-,N/A,,Clear,210,2012-11-27 15:55:00
10:35 AM,26.4,13.3,58,30.41,10.0,WSW,6.9,-,N/A,,Clear,240,2012-11-27 16:35:00
11:15 AM,27.9,13.1,54,30.39,10.0,WSW,10.4,-,N/A,,Clear,250,2012-11-27 17:15:00
11:35 AM,28.2,12.4,52,30.37,10.0,WSW,8.1,-,N/A,,Clear,250,2012-11-27 17:35:00
11:55 AM,28.6,12.4,51,30.36,10.0,WSW,8.1,-,N/A,,Clear,250,2012-11-27 17:55:00
12:15 PM,29.3,12.6,50,30.35,10.0,WSW,9.2,-,N/A,,Clear,240,2012-11-27 18:15:00
12:35 PM,30.6,12.2,47,30.34,10.0,West,9.2,-,N/A,,Clear,260,2012-11-27 18:35:00
12:55 PM,31.1,12.7,47,30.32,10.0,WSW,6.9,-,N/A,,Clear,240,2012-11-27 18:55:00
1:15 PM,31.5,11.8,44,30.32,10.0,WSW,9.2,-,N/A,,Clear,240,2012-11-27 19:15:00
1:35 PM,30.9,12.2,46,30.31,10.0,WSW,10.4,-,N/A,,Clear,250,2012-11-27 19:35:00
1:55 PM,31.3,11.8,45,30.29,10.0,WSW,9.2,-,N/A,,Clear,250,2012-11-27 19:55:00
2:15 PM,31.1,11.7,45,30.28,10.0,SW,8.1,-,N/A,,Clear,230,2012-11-27 20:15:00
2:35 PM,31.6,12.2,45,30.28,10.0,SW,10.4,-,N/A,,Clear,230,2012-11-27 20:35:00
2:55 PM,31.8,12.2,44,30.27,10.0,SW,9.2,-,N/A,,Clear,220,2012-11-27 20:55:00
3:15 PM,32.0,11.8,43,30.26,10.0,SSW,8.1,-,N/A,,Clear,210,2012-11-27 21:15:00
3:35 PM,31.1,12.2,46,30.27,10.0,SW,9.2,-,N/A,,Clear,220,2012-11-27 21:35:00
3:55 PM,30.2,13.1,49,30.27,10.0,SW,6.9,-,N/A,,Clear,220,2012-11-27 21:55:00
4:15 PM,28.4,13.6,54,30.28,10.0,SW,6.9,-,N/A,,Clear,230,2012-11-27 22:15:00
4:55 PM,27.1,14.7,60,30.27,10.0,SSW,6.9,-,N/A,,Clear,210,2012-11-27 22:55:00
5:15 PM,26.4,14.9,62,30.27,10.0,SSW,6.9,-,N/A,,Clear,210,2012-11-27 23:15:00
5:35 PM,25.7,14.9,64,30.26,10.0,SSW,6.9,-,N/A,,Scattered Clouds,200,2012-11-27 23:35:00
5:55 PM,23.5,14.9,70,30.26,10.0,South,5.8,-,N/A,,Mostly Cloudy,190,2012-11-27 23:55:00
6:15 PM,25.3,16.2,68,30.26,10.0,SSW,5.8,-,N/A,,Overcast,200,2012-11-28 00:15:00
6:35 PM,26.2,16.5,67,30.26,10.0,SSW,5.8,-,N/A,,Overcast,200,2012-11-28 00:35:00
6:55 PM,26.2,16.7,67,30.26,10.0,South,5.8,-,N/A,,Overcast,190,2012-11-28 00:55:00
7:15 PM,26.6,16.9,67,30.26,10.0,South,5.8,-,N/A,,Overcast,190,2012-11-28 01:15:00
7:35 PM,27.3,17.1,65,30.26,10.0,South,6.9,-,N/A,,Overcast,190,2012-11-28 01:35:00
7:55 PM,27.5,17.2,65,30.26,10.0,South,8.1,-,N/A,,Overcast,180,2012-11-28 01:55:00
8:15 PM,27.9,17.4,65,30.26,10.0,South,6.9,-,N/A,,Overcast,190,2012-11-28 02:15:00
8:35 PM,27.9,17.6,65,30.26,10.0,SSW,6.9,-,N/A,,Overcast,200,2012-11-28 02:35:00
8:55 PM,28.2,17.6,64,30.26,10.0,SSW,5.8,-,N/A,,Overcast,200,2012-11-28 02:55:00
9:15 PM,28.2,18.0,65,30.25,10.0,SSW,6.9,-,N/A,,Overcast,210,2012-11-28 03:15:00
9:35 PM,27.9,17.8,66,30.25,10.0,SW,4.6,-,N/A,,Overcast,220,2012-11-28 03:35:00
9:55 PM,28.9,17.4,62,30.25,10.0,SW,6.9,-,N/A,,Overcast,230,2012-11-28 03:55:00
10:15 PM,27.5,17.4,66,30.26,10.0,SW,6.9,-,N/A,,Overcast,220,2012-11-28 04:15:00
10:55 PM,27.5,18.1,68,30.26,10.0,SW,5.8,-,N/A,,Overcast,220,2012-11-28 04:55:00
11:15 PM,27.7,18.3,68,30.25,10.0,SW,6.9,-,N/A,,Overcast,220,2012-11-28 05:15:00
11:55 PM,28.4,18.3,66,30.24,10.0,SW,8.1,-,N/A,,Overcast,230,2012-11-28 05:55:00